createdAt,value
2022-09-03T00:03:15.858Z,101134.20
2022-09-03T00:08:23.581Z,101123.40
2022-09-03T00:13:32.240Z,101127.80
2022-09-03T00:18:36.079Z,101128.80
2022-09-03T00:23:38.066Z,101131.20
2022-09-03T00:28:45.444Z,101127.80
2022-09-03T00:33:49.690Z,101121.00
2022-09-03T00:38:49.505Z,101119.40
2022-09-03T00:44:15.812Z,101120.80
2022-09-03T00:49:31.306Z,101119.00
2022-09-03T00:54:41.880Z,101115.60
2022-09-03T00:59:51.879Z,101123.60
2022-09-03T01:05:09.726Z,101130.20
2022-09-03T01:10:24.390Z,101127.00
2022-09-03T01:15:37.229Z,101128.40
2022-09-03T01:20:51.371Z,101131.40
2022-09-03T01:26:03.228Z,101126.00
2022-09-03T01:31:17.646Z,101121.40
2022-09-03T01:36:26.626Z,101133.20
2022-09-03T01:42:00.420Z,101122.40
2022-09-03T01:47:13.847Z,101127.00
2022-09-03T01:52:21.722Z,101119.40
2022-09-03T01:57:57.620Z,101112.80
2022-09-03T02:03:04.686Z,101114.00
2022-09-03T02:08:07.864Z,101110.40
2022-09-03T02:13:17.510Z,101104.60
2022-09-03T02:18:22.523Z,101103.80
2022-09-03T02:23:24.713Z,101103.00
2022-09-03T02:28:27.979Z,101094.60
2022-09-03T02:33:27.374Z,101092.00
2022-09-03T02:38:29.465Z,101095.80
2022-09-03T02:43:41.096Z,101095.60
2022-09-03T02:48:41.752Z,101089.80
2022-09-03T02:53:40.905Z,101094.00
2022-09-03T02:58:41.535Z,101095.00
2022-09-03T03:03:40.204Z,101093.00
2022-09-03T03:08:43.332Z,101083.40
2022-09-03T03:13:43.688Z,101087.60
2022-09-03T03:18:46.507Z,101085.20
2022-09-03T03:23:48.342Z,101090.20
2022-09-03T03:28:49.155Z,101097.00
2022-09-03T03:33:55.339Z,101107.20
2022-09-03T03:38:59.121Z,101102.00
2022-09-03T03:44:01.496Z,101111.00
2022-09-03T03:49:01.795Z,101109.80
2022-09-03T03:54:05.285Z,101110.40
2022-09-03T03:59:05.281Z,101118.60
2022-09-03T04:04:06.903Z,101116.20
2022-09-03T04:09:06.527Z,101113.40
2022-09-03T04:14:07.727Z,101115.80
2022-09-03T04:19:06.747Z,101121.00
2022-09-03T04:24:07.988Z,101123.20
2022-09-03T04:29:10.534Z,101120.00
2022-09-03T04:34:10.586Z,101122.60
2022-09-03T04:39:09.491Z,101127.80
2022-09-03T04:44:09.207Z,101133.80
2022-09-03T04:49:09.653Z,101133.80
2022-09-03T04:54:10.051Z,101131.80
2022-09-03T04:59:11.385Z,101137.20
2022-09-03T05:04:11.581Z,101155.20
2022-09-03T05:09:10.149Z,101149.60
2022-09-03T05:14:11.931Z,101146.80
2022-09-03T05:19:12.624Z,101146.80
2022-09-03T05:24:16.351Z,101155.00
2022-09-03T05:29:16.835Z,101162.20
2022-09-03T05:34:24.010Z,101175.00
2022-09-03T05:39:23.476Z,101166.80
2022-09-03T05:44:26.065Z,101170.00
2022-09-03T05:49:24.605Z,101168.40
2022-09-03T05:54:23.488Z,101167.00
2022-09-03T05:59:22.915Z,101165.00
2022-09-03T06:04:22.115Z,101167.20
2022-09-03T06:09:23.570Z,101159.20
2022-09-03T06:14:23.936Z,101156.60
2022-09-03T06:19:23.451Z,101159.60
2022-09-03T06:24:27.998Z,101160.60
2022-09-03T06:29:27.861Z,101163.20
2022-09-03T06:34:27.356Z,101159.40
2022-09-03T06:39:27.368Z,101160.20
2022-09-03T06:44:26.517Z,101163.40
2022-09-03T06:49:26.466Z,101163.80
2022-09-03T06:54:25.314Z,101164.80
2022-09-03T06:59:24.530Z,101167.20
2022-09-03T07:04:26.041Z,101164.60
2022-09-03T07:09:26.384Z,101162.20
2022-09-03T07:14:26.003Z,101161.60
2022-09-03T07:19:27.166Z,101158.60
2022-09-03T07:24:25.354Z,101163.20
2022-09-03T07:29:25.855Z,101163.40
2022-09-03T07:34:26.476Z,101169.80
2022-09-03T07:39:25.900Z,101172.40
2022-09-03T07:44:25.277Z,101176.60
2022-09-03T07:49:24.775Z,101183.00
2022-09-03T07:54:24.258Z,101173.20
2022-09-03T07:59:24.756Z,101175.40
2022-09-03T08:04:23.800Z,101173.00
2022-09-03T08:09:23.266Z,101173.20
2022-09-03T08:14:24.987Z,101170.00
2022-09-03T08:19:24.045Z,101177.40
2022-09-03T08:24:25.070Z,101171.40
2022-09-03T08:29:24.962Z,101168.80
2022-09-03T08:34:24.611Z,101169.40
2022-09-03T08:39:23.867Z,101163.40
2022-09-03T08:44:32.632Z,101170.60
2022-09-03T08:49:42.227Z,101163.80
2022-09-03T08:54:41.727Z,101162.20
2022-09-03T08:59:40.967Z,101157.00
2022-09-03T09:05:00.066Z,101154.20
2022-09-03T09:10:15.526Z,101143.20
2022-09-03T09:15:29.766Z,101144.00
2022-09-03T09:20:38.840Z,101142.60
2022-09-03T09:25:47.216Z,101135.60
2022-09-03T09:30:49.207Z,101141.40
2022-09-03T09:35:49.424Z,101140.20
2022-09-03T09:40:49.238Z,101141.60
2022-09-03T09:45:50.306Z,101141.20
2022-09-03T09:50:48.693Z,101144.20
2022-09-03T09:56:03.066Z,101141.80
2022-09-03T10:01:13.280Z,101140.40
2022-09-03T10:06:35.215Z,101142.60
2022-09-03T10:11:39.113Z,101139.00
2022-09-03T10:16:49.247Z,101143.00
2022-09-03T10:21:56.454Z,101140.60
2022-09-03T10:26:56.312Z,101133.40
2022-09-03T10:32:12.877Z,101133.00
2022-09-03T10:37:27.725Z,101123.60
2022-09-03T10:42:48.048Z,101118.60
2022-09-03T10:48:13.086Z,101117.00
2022-09-03T10:53:22.292Z,101111.60
2022-09-03T10:58:49.443Z,101104.60
2022-09-03T11:03:57.236Z,101110.60
2022-09-03T11:09:16.760Z,101110.20
2022-09-03T11:14:26.347Z,101100.80
2022-09-03T11:19:37.930Z,101097.40
2022-09-03T11:24:42.001Z,101095.00
2022-09-03T11:29:52.736Z,101080.40
2022-09-03T11:34:54.734Z,101087.60
2022-09-03T11:40:09.291Z,101083.20
2022-09-03T11:45:39.294Z,101076.00
2022-09-03T11:50:39.207Z,101088.80
2022-09-03T11:55:56.491Z,101091.60
2022-09-03T12:00:55.778Z,101092.00
2022-09-03T12:06:29.149Z,101090.20
2022-09-03T12:11:55.862Z,101075.80
2022-09-03T12:17:15.593Z,101077.40
2022-09-03T12:22:21.285Z,101069.00
2022-09-03T12:27:26.408Z,101068.60
2022-09-03T12:32:26.481Z,101061.60
2022-09-03T12:43:37.111Z,101061.40
2022-09-03T12:48:20.232Z,101055.20
2022-09-03T12:53:26.357Z,101047.40
2022-09-03T12:58:38.262Z,101050.00
2022-09-03T13:03:52.306Z,101043.60
2022-09-03T13:08:56.447Z,101043.00
2022-09-03T13:14:06.616Z,101041.00
2022-09-03T13:19:16.541Z,101035.80
2022-09-03T13:24:40.770Z,101040.00
2022-09-03T13:30:07.222Z,101027.80
2022-09-03T13:35:25.294Z,101027.60
2022-09-03T13:40:37.882Z,101025.20
2022-09-03T13:45:46.898Z,101018.40
2022-09-03T13:50:59.075Z,101018.80
2022-09-03T13:56:06.116Z,101017.40
2022-09-03T14:01:21.386Z,101020.40
2022-09-03T14:06:38.464Z,101015.40
2022-09-03T14:11:50.289Z,101011.60
2022-09-03T14:17:00.804Z,101012.80
2022-09-03T14:22:07.241Z,101017.00
2022-09-03T14:27:07.807Z,101013.00
2022-09-03T14:32:29.691Z,101014.60
2022-09-03T14:37:53.050Z,101016.20
2022-09-03T14:43:09.520Z,101013.00
2022-09-03T14:48:52.912Z,100996.60
2022-09-03T14:54:29.762Z,101003.20
2022-09-03T15:00:12.044Z,101003.00
2022-09-03T15:05:31.634Z,101005.20
2022-09-03T15:10:41.679Z,100997.80
2022-09-03T15:16:06.677Z,100996.20
2022-09-03T15:21:27.500Z,100996.80
2022-09-03T15:26:58.844Z,100996.40
2022-09-03T15:32:11.613Z,100991.80
2022-09-03T15:37:21.990Z,100987.80
2022-09-03T15:42:29.536Z,100988.40
2022-09-03T15:47:54.481Z,100981.60
2022-09-03T15:53:07.895Z,100987.00
2022-09-03T15:58:22.385Z,100985.60
2022-09-03T16:03:40.229Z,100994.40
2022-09-03T16:08:51.819Z,100991.60
2022-09-03T16:14:06.023Z,100996.60
2022-09-03T16:19:21.422Z,100998.40
2022-09-03T16:24:31.104Z,100999.40
2022-09-03T16:29:34.789Z,100998.80
2022-09-03T16:34:50.548Z,101004.80
2022-09-03T16:40:00.820Z,101005.80
2022-09-03T16:45:16.127Z,100999.80
2022-09-03T16:50:33.370Z,101008.40
2022-09-03T16:55:57.343Z,101004.40
2022-09-03T17:01:13.351Z,100996.40
2022-09-03T17:06:41.393Z,100999.20
2022-09-03T17:12:00.870Z,101001.80
2022-09-03T17:17:12.733Z,101004.20
2022-09-03T17:22:39.054Z,101009.20
2022-09-03T17:28:02.832Z,101002.80
2022-09-03T17:33:45.070Z,101002.80
2022-09-03T17:39:19.940Z,101008.20
2022-09-03T17:44:35.479Z,101014.60
2022-09-03T17:49:45.355Z,101016.80
2022-09-03T17:54:48.801Z,101021.00
2022-09-03T17:59:56.942Z,101027.20
2022-09-03T18:05:04.834Z,101036.60
2022-09-03T18:10:12.155Z,101042.00
2022-09-03T18:15:22.515Z,101037.20
2022-09-03T18:20:42.745Z,101041.20
2022-09-03T18:26:04.899Z,101033.60
2022-09-03T18:31:20.877Z,101031.80
2022-09-03T18:36:37.335Z,101030.40
2022-09-03T18:42:16.006Z,101029.60
2022-09-03T18:48:05.463Z,101032.80
2022-09-03T18:53:37.902Z,101034.00
2022-09-03T18:59:09.293Z,101029.20
2022-09-03T19:04:40.148Z,101033.20
2022-09-03T19:10:12.869Z,101032.00
2022-09-03T19:15:39.332Z,101030.60
2022-09-03T19:21:03.753Z,101036.40
2022-09-03T19:26:34.287Z,101039.40
2022-09-03T19:32:08.459Z,101037.00
2022-09-03T19:37:34.408Z,101042.00
2022-09-03T19:43:10.552Z,101039.40
2022-09-03T19:48:47.185Z,101037.20
2022-09-03T19:54:06.450Z,101048.00
2022-09-03T19:59:35.967Z,101050.20
2022-09-03T20:04:58.771Z,101046.00
2022-09-03T20:10:19.629Z,101053.80
2022-09-03T20:15:20.027Z,101051.20
2022-09-03T20:20:32.890Z,101058.60
2022-09-03T20:25:51.781Z,101054.00
2022-09-03T20:31:03.489Z,101056.40
2022-09-03T20:36:18.750Z,101057.00
2022-09-03T20:41:30.355Z,101061.00
2022-09-03T20:46:52.405Z,101061.60
2022-09-03T20:52:04.268Z,101065.20
2022-09-03T20:57:34.792Z,101066.80
2022-09-03T21:02:58.481Z,101071.80
2022-09-03T21:08:14.116Z,101086.00
2022-09-03T21:13:22.995Z,101089.80
2022-09-03T21:18:36.728Z,101089.20
2022-09-03T21:23:47.687Z,101089.20
2022-09-03T21:28:56.696Z,101089.00
2022-09-03T21:34:07.129Z,101090.00
2022-09-03T21:39:16.042Z,101092.80
2022-09-03T21:44:25.135Z,101107.80
2022-09-03T21:49:31.174Z,101104.00
2022-09-03T21:54:34.876Z,101094.60
2022-09-03T22:00:09.914Z,101100.60
2022-09-03T22:05:12.822Z,101106.80
2022-09-03T22:10:22.626Z,101098.80
2022-09-03T22:15:24.927Z,101112.40
2022-09-03T22:20:24.300Z,101112.40
2022-09-03T22:25:34.189Z,101110.60
2022-09-03T22:30:44.282Z,101110.40
2022-09-03T22:36:17.839Z,101112.20
2022-09-03T22:41:35.239Z,101115.20
2022-09-03T22:46:47.482Z,101119.40
2022-09-03T22:52:11.123Z,101112.80
2022-09-03T22:57:12.391Z,101120.60
2022-09-03T23:02:19.837Z,101121.20
2022-09-03T23:07:28.515Z,101124.40
2022-09-03T23:12:38.736Z,101116.40
2022-09-03T23:17:45.532Z,101121.60
2022-09-03T23:22:51.609Z,101127.00
2022-09-03T23:27:58.817Z,101133.60
2022-09-03T23:33:01.563Z,101135.80
2022-09-03T23:38:18.429Z,101148.00
2022-09-03T23:43:51.728Z,101149.00
2022-09-03T23:49:26.935Z,101155.20
2022-09-03T23:54:39.160Z,101151.00
